createdAt,value
2022-12-19T00:01:37.036Z,96.67
2022-12-19T00:04:08.850Z,97.11
2022-12-19T00:06:38.083Z,96.78
2022-12-19T00:09:10.412Z,97.17
2022-12-19T00:11:38.807Z,96.90
2022-12-19T00:14:06.405Z,96.63
2022-12-19T00:16:33.296Z,96.70
2022-12-19T00:19:01.441Z,96.90
2022-12-19T00:21:34.044Z,97.48
2022-12-19T00:24:03.255Z,97.31
2022-12-19T00:26:34.973Z,97.25
2022-12-19T00:29:09.828Z,97.34
2022-12-19T00:31:39.446Z,97.43
2022-12-19T00:34:06.242Z,97.59
2022-12-19T00:36:34.489Z,97.50
2022-12-19T00:39:05.677Z,97.61
2022-12-19T00:41:37.621Z,96.82
2022-12-19T00:44:13.792Z,96.93
2022-12-19T00:46:40.685Z,97.36
2022-12-19T00:49:07.482Z,97.16
2022-12-19T00:51:37.176Z,96.96
2022-12-19T00:54:05.496Z,97.25
2022-12-19T00:56:37.187Z,97.16
2022-12-19T00:59:04.205Z,96.96
2022-12-19T01:01:34.808Z,97.02
2022-12-19T01:04:28.054Z,97.15
2022-12-19T01:06:51.499Z,97.61
2022-12-19T01:09:18.822Z,97.46
2022-12-19T01:12:04.416Z,97.47
2022-12-19T01:14:31.193Z,97.48
2022-12-19T01:16:57.932Z,97.76
2022-12-19T01:19:26.862Z,97.94
2022-12-19T01:21:53.736Z,97.69
2022-12-19T01:24:20.461Z,97.68
2022-12-19T01:26:47.196Z,97.43
2022-12-19T01:29:14.130Z,97.49
2022-12-19T01:31:40.950Z,97.88
2022-12-19T01:34:07.772Z,97.86
2022-12-19T01:36:40.077Z,97.82
2022-12-19T01:39:07.674Z,97.56
2022-12-19T01:41:35.564Z,97.81
2022-12-19T01:44:07.886Z,98.17
2022-12-19T01:46:48.502Z,98.28
2022-12-19T01:49:25.639Z,97.29
2022-12-19T01:51:56.124Z,97.26
2022-12-19T01:54:29.246Z,97.72
2022-12-19T01:56:58.984Z,97.67
2022-12-19T01:59:37.716Z,97.79
2022-12-19T02:02:16.017Z,97.94
2022-12-19T02:04:43.247Z,98.40
2022-12-19T02:07:15.912Z,97.73
2022-12-19T02:09:46.874Z,98.21
2022-12-19T02:12:14.523Z,98.32
2022-12-19T02:14:41.752Z,98.04
2022-12-19T02:17:42.549Z,98.44
2022-12-19T02:20:24.111Z,98.10
2022-12-19T02:23:18.380Z,98.06
2022-12-19T02:26:06.836Z,98.37
2022-12-19T02:29:15.978Z,98.79
2022-12-19T02:32:19.724Z,98.61
2022-12-19T02:35:31.932Z,98.63
2022-12-19T02:38:36.877Z,99.09
2022-12-19T02:41:25.051Z,98.70
2022-12-19T02:43:58.928Z,98.58
2022-12-19T02:46:27.641Z,99.13
2022-12-19T02:48:54.795Z,99.37
2022-12-19T02:51:21.539Z,99.51
2022-12-19T02:53:48.631Z,99.07
2022-12-19T02:56:46.080Z,99.22
2022-12-19T02:59:57.271Z,99.21
2022-12-19T03:02:40.898Z,98.86
2022-12-19T03:05:24.902Z,98.88
2022-12-19T03:08:28.253Z,99.18
2022-12-19T03:11:02.396Z,99.14
2022-12-19T03:13:46.635Z,99.46
2022-12-19T03:16:14.265Z,99.31
2022-12-19T03:18:41.698Z,99.56
2022-12-19T03:21:32.740Z,99.44
2022-12-19T03:23:59.673Z,99.57
2022-12-19T03:26:32.715Z,99.40
2022-12-19T03:29:13.535Z,99.56
2022-12-19T03:31:42.081Z,99.49
2022-12-19T03:34:22.600Z,99.85
2022-12-19T03:36:56.668Z,100.00
2022-12-19T03:39:25.532Z,99.75
2022-12-19T03:42:12.254Z,99.54
2022-12-19T03:44:42.855Z,99.74
2022-12-19T03:47:22.988Z,99.71
2022-12-19T03:49:50.590Z,99.71
2022-12-19T03:52:35.842Z,99.84
2022-12-19T03:55:36.374Z,99.51
2022-12-19T03:58:11.848Z,99.59
2022-12-19T04:00:47.500Z,100.00
2022-12-19T04:03:17.314Z,100.00
2022-12-19T04:05:45.997Z,100.00
2022-12-19T04:08:13.538Z,100.00
2022-12-19T04:10:56.156Z,100.00
2022-12-19T04:13:37.784Z,100.00
2022-12-19T04:16:19.098Z,100.00
2022-12-19T04:18:53.548Z,100.00
2022-12-19T04:21:31.682Z,100.00
2022-12-19T04:24:10.148Z,100.00
2022-12-19T04:26:39.435Z,100.00
2022-12-19T04:29:08.089Z,100.00
2022-12-19T04:31:36.267Z,100.00
2022-12-19T04:34:06.108Z,100.00
2022-12-19T04:36:33.085Z,100.00
2022-12-19T04:38:59.802Z,100.00
2022-12-19T04:41:26.566Z,100.00
2022-12-19T04:43:53.337Z,100.00
2022-12-19T04:46:20.139Z,100.00
2022-12-19T04:48:46.979Z,100.00
2022-12-19T04:51:13.928Z,100.00
2022-12-19T04:53:40.832Z,100.00
2022-12-19T04:56:10.346Z,100.00
2022-12-19T04:58:37.101Z,100.00
2022-12-19T05:01:06.737Z,100.00
2022-12-19T05:03:34.513Z,100.00
2022-12-19T05:06:11.897Z,100.00
2022-12-19T05:08:41.098Z,100.00
2022-12-19T05:11:19.148Z,100.00
2022-12-19T05:13:46.875Z,100.00
2022-12-19T05:16:15.984Z,100.00
2022-12-19T05:18:43.557Z,100.00
2022-12-19T05:21:11.360Z,100.00
2022-12-19T05:23:38.494Z,100.00
2022-12-19T05:26:06.321Z,100.00
2022-12-19T05:28:33.901Z,100.00
2022-12-19T05:31:05.667Z,100.00
2022-12-19T05:33:32.529Z,100.00
2022-12-19T05:35:59.356Z,100.00
2022-12-19T05:38:27.309Z,100.00
2022-12-19T05:40:54.158Z,100.00
2022-12-19T05:43:21.291Z,100.00
2022-12-19T05:45:48.072Z,100.00
2022-12-19T05:48:15.088Z,100.00
2022-12-19T05:50:42.641Z,100.00
2022-12-19T05:53:10.040Z,100.00
2022-12-19T05:55:36.778Z,100.00
2022-12-19T05:58:03.578Z,100.00
2022-12-19T06:00:30.388Z,100.00
2022-12-19T06:02:57.385Z,100.00
2022-12-19T06:05:24.232Z,100.00
2022-12-19T06:07:51.048Z,100.00
2022-12-19T06:10:17.818Z,100.00
2022-12-19T06:12:47.257Z,100.00
2022-12-19T06:15:14.032Z,100.00
2022-12-19T06:17:40.810Z,100.00
2022-12-19T06:20:08.244Z,100.00
2022-12-19T06:22:36.078Z,100.00
2022-12-19T06:25:03.019Z,100.00
2022-12-19T06:27:29.816Z,100.00
2022-12-19T06:29:56.565Z,100.00
2022-12-19T06:32:23.352Z,100.00
2022-12-19T06:35:05.404Z,100.00
2022-12-19T06:37:32.290Z,100.00
2022-12-19T06:40:01.917Z,100.00
2022-12-19T06:42:28.710Z,100.00
2022-12-19T06:44:56.604Z,100.00
2022-12-19T06:47:24.419Z,100.00
2022-12-19T06:49:51.607Z,100.00
2022-12-19T06:52:18.488Z,100.00
2022-12-19T06:54:45.310Z,100.00
2022-12-19T06:57:12.184Z,100.00
2022-12-19T06:59:38.931Z,100.00
2022-12-19T07:02:30.526Z,100.00
2022-12-19T07:05:04.712Z,100.00
2022-12-19T07:07:31.982Z,100.00
2022-12-19T07:09:59.117Z,100.00
2022-12-19T07:12:26.505Z,100.00
2022-12-19T07:14:53.910Z,100.00
2022-12-19T07:17:22.803Z,100.00
2022-12-19T07:19:49.601Z,100.00
2022-12-19T07:22:16.507Z,100.00
2022-12-19T07:24:43.700Z,100.00
2022-12-19T07:27:10.615Z,100.00
2022-12-19T07:29:37.469Z,100.00
2022-12-19T07:32:04.489Z,100.00
2022-12-19T07:34:31.375Z,100.00
2022-12-19T07:36:58.130Z,100.00
2022-12-19T07:39:25.370Z,100.00
2022-12-19T07:41:52.127Z,100.00
2022-12-19T07:44:18.921Z,100.00
2022-12-19T07:46:45.745Z,100.00
2022-12-19T07:49:16.980Z,100.00
2022-12-19T07:51:46.493Z,100.00
2022-12-19T07:54:14.291Z,100.00
2022-12-19T07:56:41.008Z,100.00
2022-12-19T07:59:08.022Z,100.00
2022-12-19T08:01:34.890Z,100.00
2022-12-19T08:04:01.762Z,100.00
2022-12-19T08:06:28.772Z,100.00
2022-12-19T08:08:55.608Z,100.00
2022-12-19T08:11:27.272Z,100.00
2022-12-19T08:13:55.062Z,100.00
2022-12-19T08:16:22.858Z,100.00
2022-12-19T08:18:49.693Z,100.00
2022-12-19T08:21:16.853Z,100.00
2022-12-19T08:23:43.632Z,100.00
2022-12-19T08:26:17.752Z,100.00
2022-12-19T08:28:48.247Z,100.00
2022-12-19T08:31:17.969Z,100.00
2022-12-19T08:33:45.000Z,100.00
2022-12-19T08:36:15.357Z,100.00
2022-12-19T08:38:42.295Z,100.00
2022-12-19T08:41:09.665Z,100.00
2022-12-19T08:43:36.699Z,100.00
2022-12-19T08:46:03.736Z,100.00
2022-12-19T08:48:32.163Z,100.00
2022-12-19T08:51:02.581Z,100.00
2022-12-19T08:53:32.669Z,100.00
2022-12-19T08:56:09.879Z,100.00
2022-12-19T08:58:36.861Z,100.00
2022-12-19T09:01:09.137Z,100.00
2022-12-19T09:03:42.830Z,100.00
2022-12-19T09:06:23.708Z,100.00
2022-12-19T09:08:50.505Z,100.00
2022-12-19T09:11:19.803Z,99.82
2022-12-19T09:13:48.348Z,99.34
2022-12-19T09:16:23.615Z,99.30
2022-12-19T09:18:53.314Z,99.50
2022-12-19T09:21:23.400Z,99.60
2022-12-19T09:23:53.919Z,99.32
2022-12-19T09:26:23.158Z,99.16
2022-12-19T09:28:51.043Z,99.06
2022-12-19T09:31:22.551Z,99.02
2022-12-19T09:33:49.579Z,99.18
2022-12-19T09:36:23.216Z,98.48
2022-12-19T09:38:51.367Z,97.85
2022-12-19T09:41:51.757Z,96.70
2022-12-19T09:44:52.865Z,96.43
2022-12-19T09:47:31.822Z,95.66
2022-12-19T09:50:00.491Z,95.42
2022-12-19T09:52:45.373Z,95.66
2022-12-19T09:55:28.379Z,95.07
2022-12-19T09:58:04.722Z,95.03
2022-12-19T10:01:00.248Z,94.81
2022-12-19T10:03:30.533Z,94.46
2022-12-19T10:07:13.392Z,93.55
2022-12-19T10:11:45.744Z,93.44
2022-12-19T10:12:45.399Z,93.11
2022-12-19T10:15:43.961Z,92.65
2022-12-19T10:18:34.816Z,92.37
2022-12-19T10:21:07.935Z,92.46
2022-12-19T10:23:48.330Z,92.64
2022-12-19T10:26:34.580Z,93.06
2022-12-19T10:29:41.764Z,92.75
2022-12-19T10:32:36.917Z,92.86
2022-12-19T10:35:16.116Z,93.24
2022-12-19T10:37:56.753Z,93.53
2022-12-19T10:40:29.300Z,93.86
2022-12-19T10:43:44.072Z,93.80
2022-12-19T10:46:20.301Z,93.43
2022-12-19T10:48:51.587Z,93.25
2022-12-19T10:51:30.645Z,92.84
2022-12-19T10:54:00.356Z,92.62
2022-12-19T10:56:37.267Z,93.23
2022-12-19T10:59:21.299Z,93.81
2022-12-19T11:01:48.653Z,93.89
2022-12-19T11:04:34.660Z,94.03
2022-12-19T11:07:04.075Z,93.61
2022-12-19T11:09:41.913Z,93.96
2022-12-19T11:15:50.379Z,94.09
2022-12-19T11:20:36.403Z,94.27
2022-12-19T11:21:03.847Z,94.51
2022-12-19T11:29:34.556Z,94.03
2022-12-19T11:29:36.496Z,94.29
2022-12-19T11:30:48.856Z,94.32
2022-12-19T11:32:45.406Z,94.25
2022-12-19T11:35:37.047Z,93.85
2022-12-19T11:38:08.485Z,94.09
2022-12-19T11:40:56.059Z,93.81
2022-12-19T11:43:46.140Z,93.48
2022-12-19T11:46:24.967Z,92.82
2022-12-19T11:49:13.349Z,92.61
2022-12-19T11:52:29.445Z,92.21
2022-12-19T11:55:04.764Z,91.85
2022-12-19T11:57:32.158Z,92.30
2022-12-19T12:00:04.707Z,92.65
2022-12-19T12:03:04.631Z,92.88
2022-12-19T12:05:51.417Z,92.88
2022-12-19T12:11:38.296Z,92.58
2022-12-19T12:22:51.278Z,92.63
2022-12-19T12:25:13.318Z,92.21
2022-12-19T12:31:01.217Z,92.23
2022-12-19T12:31:09.104Z,91.79
2022-12-19T12:32:05.071Z,91.49
2022-12-19T12:32:05.402Z,91.73
2022-12-19T12:35:34.262Z,90.73
2022-12-19T12:38:40.563Z,90.98
2022-12-19T12:41:12.378Z,90.63
2022-12-19T12:44:09.317Z,90.22
2022-12-19T12:46:46.914Z,89.49
2022-12-19T12:49:42.446Z,89.49
2022-12-19T12:52:39.579Z,88.65
2022-12-19T12:55:18.354Z,88.21
2022-12-19T12:57:45.165Z,87.83
2022-12-19T13:00:31.582Z,87.84
2022-12-19T13:03:04.726Z,87.80
2022-12-19T13:05:46.728Z,88.09
2022-12-19T13:08:44.875Z,88.39
2022-12-19T13:11:39.287Z,88.60
2022-12-19T13:14:45.893Z,89.49
2022-12-19T13:17:47.600Z,89.71
2022-12-19T13:20:19.101Z,89.64
2022-12-19T13:22:59.347Z,89.47
2022-12-19T13:25:36.159Z,89.31
2022-12-19T13:28:02.830Z,89.33
2022-12-19T13:30:31.558Z,89.65
2022-12-19T13:33:01.225Z,90.17
2022-12-19T13:39:46.497Z,89.94
2022-12-19T13:39:54.015Z,90.41
2022-12-19T13:41:48.729Z,90.54
2022-12-19T13:44:21.943Z,91.43
2022-12-19T13:46:49.845Z,92.19
2022-12-19T13:49:34.133Z,91.79
2022-12-19T13:52:05.007Z,92.09
2022-12-19T13:54:45.678Z,92.30
2022-12-19T13:57:32.810Z,92.04
2022-12-19T14:00:09.981Z,92.26
2022-12-19T14:02:55.090Z,92.95
2022-12-19T14:06:17.424Z,93.12
2022-12-19T14:08:25.728Z,93.45
2022-12-19T14:11:47.509Z,93.78
2022-12-19T14:14:17.669Z,93.71
2022-12-19T14:16:48.869Z,93.80
2022-12-19T14:19:25.235Z,93.32
2022-12-19T14:22:09.023Z,93.28
2022-12-19T14:24:40.575Z,93.58
2022-12-19T14:28:21.196Z,93.54
2022-12-19T14:30:30.406Z,93.29
2022-12-19T14:33:46.308Z,93.56
2022-12-19T14:36:10.695Z,93.68
2022-12-19T14:39:24.939Z,93.59
2022-12-19T14:42:07.785Z,93.43
2022-12-19T14:52:35.435Z,93.01
2022-12-19T14:52:35.817Z,93.80
2022-12-19T14:54:34.889Z,94.22
2022-12-19T14:54:42.094Z,94.32
2022-12-19T14:56:36.302Z,95.09
2022-12-19T14:59:20.893Z,95.58
2022-12-19T15:02:27.608Z,95.54
2022-12-19T15:05:06.028Z,95.05
2022-12-19T15:07:34.420Z,95.52
2022-12-19T15:11:08.579Z,95.92
2022-12-19T15:14:54.393Z,96.35
2022-12-19T15:16:30.741Z,96.79
2022-12-19T15:19:00.908Z,96.62
2022-12-19T15:21:30.454Z,96.47
2022-12-19T15:23:57.479Z,96.31
2022-12-19T15:26:34.843Z,96.16
2022-12-19T15:29:03.342Z,96.38
2022-12-19T15:31:40.482Z,96.57
2022-12-19T15:34:36.826Z,97.17
2022-12-19T15:37:05.018Z,97.76
2022-12-19T15:39:32.132Z,97.71
2022-12-19T15:42:00.513Z,97.74
2022-12-19T15:44:40.148Z,97.54
2022-12-19T15:47:20.085Z,97.56
2022-12-19T15:49:47.576Z,97.50
2022-12-19T15:52:18.762Z,97.58
2022-12-19T15:54:49.423Z,97.69
2022-12-19T15:57:42.055Z,97.45
2022-12-19T16:00:19.863Z,97.46
2022-12-19T16:05:34.778Z,97.50
2022-12-19T16:08:01.615Z,97.38
2022-12-19T16:10:28.716Z,97.64
2022-12-19T16:12:57.867Z,98.21
2022-12-19T16:15:34.447Z,98.63
2022-12-19T16:18:03.852Z,98.74
2022-12-19T16:20:36.214Z,98.43
2022-12-19T16:23:03.151Z,99.07
2022-12-19T16:25:36.937Z,99.03
2022-12-19T16:28:06.136Z,98.94
2022-12-19T16:30:35.245Z,99.04
2022-12-19T16:33:02.381Z,98.75
2022-12-19T16:36:02.524Z,99.28
2022-12-19T16:38:17.868Z,99.88
2022-12-19T16:40:45.773Z,100.00
2022-12-19T16:43:24.245Z,100.00
2022-12-19T16:45:51.837Z,100.00
2022-12-19T16:48:27.649Z,99.78
2022-12-19T16:50:54.428Z,99.45
2022-12-19T16:53:21.237Z,99.83
2022-12-19T16:55:50.197Z,99.68
2022-12-19T16:58:22.767Z,99.86
2022-12-19T17:00:52.093Z,100.00
2022-12-19T17:03:42.950Z,100.00
2022-12-19T17:06:22.936Z,100.00
2022-12-19T17:08:49.898Z,100.00
2022-12-19T17:11:23.670Z,100.00
2022-12-19T17:14:02.680Z,100.00
2022-12-19T17:16:31.212Z,100.00
2022-12-19T17:18:59.196Z,100.00
2022-12-19T17:21:26.049Z,100.00
2022-12-19T17:23:53.025Z,100.00
2022-12-19T17:26:19.876Z,100.00
2022-12-19T17:28:49.583Z,100.00
2022-12-19T17:31:24.801Z,100.00
2022-12-19T17:33:52.058Z,100.00
2022-12-19T17:36:24.832Z,100.00
2022-12-19T17:38:52.909Z,100.00
2022-12-19T17:41:19.766Z,100.00
2022-12-19T17:43:46.581Z,100.00
2022-12-19T17:46:22.237Z,100.00
2022-12-19T17:48:52.568Z,100.00
2022-12-19T17:51:22.419Z,100.00
2022-12-19T17:53:49.922Z,100.00
2022-12-19T17:56:20.687Z,99.65
2022-12-19T17:58:48.680Z,99.69
2022-12-19T18:01:23.956Z,99.31
2022-12-19T18:03:53.025Z,100.00
2022-12-19T18:06:20.732Z,100.00
2022-12-19T18:08:48.044Z,100.00
2022-12-19T18:11:24.780Z,100.00
2022-12-19T18:13:53.312Z,100.00
2022-12-19T18:16:26.264Z,100.00
2022-12-19T18:18:53.176Z,100.00
2022-12-19T18:21:24.231Z,100.00
2022-12-19T18:23:51.767Z,100.00
2022-12-19T18:26:18.657Z,100.00
2022-12-19T18:28:45.493Z,100.00
2022-12-19T18:31:20.398Z,100.00
2022-12-19T18:33:50.607Z,100.00
2022-12-19T18:36:23.532Z,100.00
2022-12-19T18:38:51.415Z,100.00
2022-12-19T18:41:20.173Z,100.00
2022-12-19T18:43:47.701Z,100.00
2022-12-19T18:46:26.376Z,99.91
2022-12-19T18:48:53.455Z,100.00
2022-12-19T18:51:23.335Z,100.00
2022-12-19T18:53:51.009Z,100.00
2022-12-19T18:56:18.050Z,100.00
2022-12-19T18:58:44.875Z,100.00
2022-12-19T19:01:17.192Z,100.00
2022-12-19T19:03:54.458Z,100.00
2022-12-19T19:06:32.941Z,99.96
2022-12-19T19:09:03.344Z,100.00
2022-12-19T19:11:30.180Z,100.00
2022-12-19T19:13:57.155Z,100.00
2022-12-19T19:16:26.333Z,100.00
2022-12-19T19:18:55.991Z,100.00
2022-12-19T19:21:30.456Z,100.00
2022-12-19T19:24:19.508Z,100.00
2022-12-19T19:26:46.451Z,100.00
2022-12-19T19:29:19.060Z,100.00
2022-12-19T19:31:48.477Z,100.00
2022-12-19T19:34:30.161Z,100.00
2022-12-19T19:37:01.036Z,100.00
2022-12-19T19:39:28.527Z,99.96
2022-12-19T19:41:56.456Z,99.90
2022-12-19T19:44:23.418Z,99.65
2022-12-19T19:46:50.340Z,100.00
2022-12-19T19:49:17.368Z,100.00
2022-12-19T19:51:44.256Z,99.84
2022-12-19T19:54:11.211Z,99.77
2022-12-19T19:56:38.211Z,99.52
2022-12-19T19:59:05.872Z,99.62
2022-12-19T20:01:32.896Z,99.09
2022-12-19T20:03:59.880Z,99.18
2022-12-19T20:06:26.944Z,99.12
2022-12-19T20:08:53.769Z,99.22
2022-12-19T20:11:20.927Z,99.70
2022-12-19T20:13:47.931Z,99.63
2022-12-19T20:16:18.341Z,100.00
2022-12-19T20:18:53.224Z,100.00
2022-12-19T20:21:21.696Z,100.00
2022-12-19T20:23:48.564Z,100.00
2022-12-19T20:26:17.133Z,100.00
2022-12-19T20:28:49.340Z,100.00
2022-12-19T20:31:19.876Z,100.00
2022-12-19T20:33:48.589Z,100.00
2022-12-19T20:36:16.731Z,99.78
2022-12-19T20:38:43.923Z,100.00
2022-12-19T20:41:10.995Z,100.00
2022-12-19T20:43:38.812Z,99.68
2022-12-19T20:46:14.235Z,99.20
2022-12-19T20:48:41.900Z,99.05
2022-12-19T20:51:10.197Z,99.00
2022-12-19T20:53:39.049Z,98.94
2022-12-19T20:56:07.940Z,99.19
2022-12-19T20:58:37.566Z,99.30
2022-12-19T21:01:17.969Z,99.55
2022-12-19T21:03:45.287Z,99.71
2022-12-19T21:06:15.585Z,99.61
2022-12-19T21:08:42.806Z,99.31
2022-12-19T21:11:10.124Z,99.67
2022-12-19T21:13:38.053Z,99.52
2022-12-19T21:16:08.982Z,99.69
2022-12-19T21:18:38.669Z,99.79
2022-12-19T21:21:08.480Z,99.47
2022-12-19T21:23:35.382Z,99.60
2022-12-19T21:26:04.889Z,99.53
2022-12-19T21:28:32.692Z,99.68
2022-12-19T21:31:05.212Z,99.74
2022-12-19T21:33:32.425Z,99.67
2022-12-19T21:36:10.350Z,99.46
2022-12-19T21:38:37.761Z,99.16
2022-12-19T21:41:06.621Z,99.54
2022-12-19T21:43:35.005Z,99.71
2022-12-19T21:46:10.712Z,99.84
2022-12-19T21:48:40.383Z,99.34
2022-12-19T21:51:08.259Z,99.05
2022-12-19T21:53:36.977Z,99.52
2022-12-19T21:56:25.459Z,99.86
2022-12-19T21:59:02.014Z,100.00
2022-12-19T22:01:30.799Z,100.00
2022-12-19T22:04:03.987Z,100.00
2022-12-19T22:06:33.420Z,100.00
2022-12-19T22:09:02.043Z,100.00
2022-12-19T22:11:30.225Z,100.00
2022-12-19T22:14:00.553Z,100.00
2022-12-19T22:16:28.685Z,100.00
2022-12-19T22:18:56.628Z,100.00
2022-12-19T22:21:25.566Z,100.00
2022-12-19T22:23:52.838Z,100.00
2022-12-19T22:26:23.292Z,100.00
2022-12-19T22:28:54.120Z,100.00
2022-12-19T22:31:29.834Z,100.00
2022-12-19T22:34:03.141Z,100.00
2022-12-19T22:36:32.156Z,100.00
2022-12-19T22:39:01.916Z,100.00
2022-12-19T22:41:29.155Z,100.00
2022-12-19T22:43:56.643Z,100.00
2022-12-19T22:46:30.655Z,100.00
2022-12-19T22:49:01.388Z,100.00
2022-12-19T22:51:30.215Z,100.00
2022-12-19T22:53:58.184Z,100.00
2022-12-19T22:56:28.996Z,100.00
2022-12-19T22:59:00.099Z,100.00
2022-12-19T23:01:30.601Z,100.00
2022-12-19T23:04:01.505Z,100.00
2022-12-19T23:06:33.677Z,100.00
2022-12-19T23:09:00.998Z,100.00
2022-12-19T23:11:35.564Z,100.00
2022-12-19T23:14:05.550Z,100.00
2022-12-19T23:16:32.553Z,100.00
2022-12-19T23:18:59.336Z,100.00
2022-12-19T23:21:27.054Z,100.00
2022-12-19T23:23:55.652Z,100.00
2022-12-19T23:26:23.726Z,100.00
2022-12-19T23:29:00.344Z,100.00
2022-12-19T23:31:28.951Z,100.00
2022-12-19T23:33:57.229Z,100.00
2022-12-19T23:37:00.269Z,100.00
2022-12-19T23:39:12.789Z,100.00
2022-12-19T23:41:40.097Z,100.00
2022-12-19T23:44:07.589Z,100.00
2022-12-19T23:46:34.375Z,100.00
2022-12-19T23:49:01.260Z,100.00
2022-12-19T23:51:28.442Z,100.00
2022-12-19T23:53:56.555Z,100.00
2022-12-19T23:56:29.967Z,100.00
2022-12-19T23:58:57.455Z,100.00
